sensor_id;sensor_type;location;lat;lon;timestamp;P1;durP1;ratioP1;P2;durP2;ratioP2
47513;SDS011;33951;51.988;5.910;2023-07-20T04:04:36;3.60;;;3.30;;
47513;SDS011;33951;51.988;5.910;2023-07-20T04:07:43;4.50;;;3.65;;
47513;SDS011;33951;51.988;5.910;2023-07-20T04:13:49;3.55;;;3.22;;
47513;SDS011;33951;51.988;5.910;2023-07-20T04:19:40;5.53;;;4.85;;
47513;SDS011;33951;51.988;5.910;2023-07-20T04:22:09;4.57;;;3.75;;
47513;SDS011;33951;51.988;5.910;2023-07-20T04:25:04;4.57;;;3.55;;
47513;SDS011;33951;51.988;5.910;2023-07-20T04:28:25;7.85;;;4.45;;
47513;SDS011;33951;51.988;5.910;2023-07-20T04:31:17;4.63;;;4.00;;
47513;SDS011;33951;51.988;5.910;2023-07-20T04:33:58;5.78;;;4.45;;
47513;SDS011;33951;51.988;5.910;2023-07-20T04:39:51;12.65;;;10.25;;
47513;SDS011;33951;51.988;5.910;2023-07-20T04:42:47;14.73;;;9.30;;
47513;SDS011;33951;51.988;5.910;2023-07-20T04:45:25;11.50;;;8.48;;
47513;SDS011;33951;51.988;5.910;2023-07-20T04:48:52;5.60;;;5.10;;
47513;SDS011;33951;51.988;5.910;2023-07-20T04:52:05;5.65;;;4.55;;
47513;SDS011;33951;51.988;5.910;2023-07-20T04:54:49;5.30;;;4.80;;
47513;SDS011;33951;51.988;5.910;2023-07-20T04:58:22;6.30;;;5.45;;
47513;SDS011;33951;51.988;5.910;2023-07-20T05:04:32;5.45;;;4.65;;
47513;SDS011;33951;51.988;5.910;2023-07-20T06:07:22;5.15;;;2.15;;
47513;SDS011;33951;51.988;5.910;2023-07-20T06:09:48;4.15;;;2.10;;
47513;SDS011;33951;51.988;5.910;2023-07-20T06:12:14;3.88;;;2.00;;
47513;SDS011;33951;51.988;5.910;2023-07-20T06:18:03;2.42;;;1.55;;
47513;SDS011;33951;51.988;5.910;2023-07-20T06:20:29;2.67;;;1.55;;
47513;SDS011;33951;51.988;5.910;2023-07-20T06:30:40;2.95;;;1.30;;
47513;SDS011;33951;51.988;5.910;2023-07-20T06:33:41;1.45;;;1.05;;
47513;SDS011;33951;51.988;5.910;2023-07-20T06:36:23;4.15;;;1.50;;
47513;SDS011;33951;51.988;5.910;2023-07-20T07:09:56;2.45;;;1.27;;
47513;SDS011;33951;51.988;5.910;2023-07-20T08:16:25;2.67;;;1.30;;
47513;SDS011;33951;51.988;5.910;2023-07-20T08:39:21;0.85;;;0.80;;
47513;SDS011;33951;51.988;5.910;2023-07-20T09:06:26;2.38;;;1.17;;
47513;SDS011;33951;51.988;5.910;2023-07-20T09:09:49;1.00;;;0.90;;
47513;SDS011;33951;51.988;5.910;2023-07-20T09:18:31;2.03;;;1.10;;
47513;SDS011;33951;51.988;5.910;2023-07-20T09:21:09;1.20;;;0.88;;
47513;SDS011;33951;51.988;5.910;2023-07-20T09:23:56;2.30;;;1.02;;
47513;SDS011;33951;51.988;5.910;2023-07-20T09:26:36;1.00;;;0.90;;
47513;SDS011;33951;51.988;5.910;2023-07-20T09:29:47;1.20;;;0.90;;
47513;SDS011;33951;51.988;5.910;2023-07-20T09:32:44;3.00;;;1.15;;
47513;SDS011;33951;51.988;5.910;2023-07-20T09:35:31;1.30;;;1.20;;
47513;SDS011;33951;51.988;5.910;2023-07-20T09:38:08;1.55;;;0.95;;
47513;SDS011;33951;51.988;5.910;2023-07-20T09:43:43;2.47;;;1.00;;
47513;SDS011;33951;51.988;5.910;2023-07-20T09:46:45;1.02;;;0.88;;
47513;SDS011;33951;51.988;5.910;2023-07-20T09:49:47;1.33;;;1.10;;
47513;SDS011;33951;51.988;5.910;2023-07-20T09:52:25;2.30;;;1.38;;
47513;SDS011;33951;51.988;5.910;2023-07-20T09:54:52;0.98;;;0.82;;
47513;SDS011;33951;51.988;5.910;2023-07-20T09:57:24;2.67;;;1.20;;
47513;SDS011;33951;51.988;5.910;2023-07-20T09:59:51;4.30;;;1.20;;
47513;SDS011;33951;51.988;5.910;2023-07-20T10:11:15;4.00;;;1.00;;
47513;SDS011;33951;51.988;5.910;2023-07-20T10:13:44;1.85;;;1.10;;
47513;SDS011;33951;51.988;5.910;2023-07-20T10:16:22;1.52;;;1.02;;
47513;SDS011;33951;51.988;5.910;2023-07-20T10:21:25;4.63;;;1.40;;
47513;SDS011;33951;51.988;5.910;2023-07-20T10:23:59;4.43;;;1.10;;
47513;SDS011;33951;51.988;5.910;2023-07-20T10:26:39;1.10;;;0.98;;
47513;SDS011;33951;51.988;5.910;2023-07-20T10:29:15;1.65;;;1.10;;
47513;SDS011;33951;51.988;5.910;2023-07-20T10:31:57;4.60;;;1.20;;
47513;SDS011;33951;51.988;5.910;2023-07-20T10:34:37;2.55;;;1.13;;
47513;SDS011;33951;51.988;5.910;2023-07-20T10:37:09;1.42;;;1.10;;
47513;SDS011;33951;51.988;5.910;2023-07-20T10:39:35;1.48;;;1.02;;
47513;SDS011;33951;51.988;5.910;2023-07-20T10:42:02;2.88;;;2.10;;
47513;SDS011;33951;51.988;5.910;2023-07-20T10:44:31;2.58;;;1.25;;
47513;SDS011;33951;51.988;5.910;2023-07-20T10:47:08;2.30;;;1.02;;
47513;SDS011;33951;51.988;5.910;2023-07-20T10:49:35;1.30;;;1.20;;
47513;SDS011;33951;51.988;5.910;2023-07-20T10:55:35;4.45;;;1.40;;
47513;SDS011;33951;51.988;5.910;2023-07-20T10:58:12;1.38;;;0.93;;
47513;SDS011;33951;51.988;5.910;2023-07-20T11:03:31;2.60;;;1.33;;
47513;SDS011;33951;51.988;5.910;2023-07-20T11:11:50;1.77;;;1.40;;
47513;SDS011;33951;51.988;5.910;2023-07-20T11:14:59;1.45;;;1.10;;
47513;SDS011;33951;51.988;5.910;2023-07-20T11:17:30;2.42;;;1.20;;
47513;SDS011;33951;51.988;5.910;2023-07-20T11:19:57;1.63;;;1.20;;
47513;SDS011;33951;51.988;5.910;2023-07-20T11:22:33;2.97;;;1.15;;
47513;SDS011;33951;51.988;5.910;2023-07-20T11:24:59;2.10;;;1.58;;
47513;SDS011;33951;51.988;5.910;2023-07-20T11:27:25;2.40;;;1.23;;
47513;SDS011;33951;51.988;5.910;2023-07-20T11:29:53;2.08;;;1.48;;
47513;SDS011;33951;51.988;5.910;2023-07-20T11:32:23;1.55;;;1.38;;
47513;SDS011;33951;51.988;5.910;2023-07-20T11:34:59;2.55;;;1.52;;
47513;SDS011;33951;51.988;5.910;2023-07-20T11:37:50;3.13;;;1.00;;
47513;SDS011;33951;51.988;5.910;2023-07-20T11:40:14;1.60;;;1.48;;
47513;SDS011;33951;51.988;5.910;2023-07-20T11:42:43;3.80;;;1.50;;
47513;SDS011;33951;51.988;5.910;2023-07-20T11:45:22;1.70;;;1.38;;
47513;SDS011;33951;51.988;5.910;2023-07-20T11:47:52;1.42;;;1.23;;
47513;SDS011;33951;51.988;5.910;2023-07-20T11:50:23;2.50;;;1.30;;
47513;SDS011;33951;51.988;5.910;2023-07-20T11:52:57;1.80;;;1.00;;
47513;SDS011;33951;51.988;5.910;2023-07-20T11:55:40;4.07;;;1.20;;
47513;SDS011;33951;51.988;5.910;2023-07-20T11:58:10;1.35;;;1.23;;
47513;SDS011;33951;51.988;5.910;2023-07-20T12:03:45;3.15;;;1.50;;
47513;SDS011;33951;51.988;5.910;2023-07-20T12:06:15;1.50;;;1.27;;
47513;SDS011;33951;51.988;5.910;2023-07-20T12:08:50;2.28;;;1.20;;
47513;SDS011;33951;51.988;5.910;2023-07-20T12:11:31;1.63;;;1.20;;
47513;SDS011;33951;51.988;5.910;2023-07-20T12:14:06;2.35;;;1.30;;
47513;SDS011;33951;51.988;5.910;2023-07-20T12:16:36;1.30;;;1.20;;
47513;SDS011;33951;51.988;5.910;2023-07-20T12:19:09;3.80;;;1.48;;
47513;SDS011;33951;51.988;5.910;2023-07-20T12:21:37;1.30;;;1.20;;
47513;SDS011;33951;51.988;5.910;2023-07-20T12:24:05;1.52;;;1.13;;
47513;SDS011;33951;51.988;5.910;2023-07-20T12:26:36;1.48;;;1.20;;
47513;SDS011;33951;51.988;5.910;2023-07-20T12:29:02;1.08;;;1.00;;
47513;SDS011;33951;51.988;5.910;2023-07-20T12:31:29;1.15;;;1.02;;
47513;SDS011;33951;51.988;5.910;2023-07-20T12:33:56;1.23;;;0.98;;
47513;SDS011;33951;51.988;5.910;2023-07-20T12:36:24;2.57;;;1.13;;
47513;SDS011;33951;51.988;5.910;2023-07-20T12:38:56;1.77;;;1.10;;
47513;SDS011;33951;51.988;5.910;2023-07-20T12:41:23;1.98;;;1.20;;
47513;SDS011;33951;51.988;5.910;2023-07-20T12:43:57;1.35;;;1.02;;
47513;SDS011;33951;51.988;5.910;2023-07-20T12:46:29;2.53;;;1.10;;
47513;SDS011;33951;51.988;5.910;2023-07-20T12:49:10;2.42;;;1.10;;
47513;SDS011;33951;51.988;5.910;2023-07-20T12:54:46;2.30;;;1.30;;
47513;SDS011;33951;51.988;5.910;2023-07-20T12:57:17;1.38;;;1.27;;
47513;SDS011;33951;51.988;5.910;2023-07-20T13:00:05;1.55;;;1.27;;
47513;SDS011;33951;51.988;5.910;2023-07-20T13:02:37;1.40;;;1.10;;
47513;SDS011;33951;51.988;5.910;2023-07-20T13:05:04;1.08;;;0.90;;
47513;SDS011;33951;51.988;5.910;2023-07-20T13:10:14;1.80;;;1.00;;
47513;SDS011;33951;51.988;5.910;2023-07-20T13:13:00;0.90;;;0.90;;
47513;SDS011;33951;51.988;5.910;2023-07-20T13:15:45;3.95;;;1.27;;
47513;SDS011;33951;51.988;5.910;2023-07-20T13:18:14;1.63;;;1.02;;
47513;SDS011;33951;51.988;5.910;2023-07-20T13:20:40;1.90;;;1.00;;
47513;SDS011;33951;51.988;5.910;2023-07-20T13:23:08;2.38;;;1.00;;
47513;SDS011;33951;51.988;5.910;2023-07-20T13:25:40;1.23;;;0.90;;
47513;SDS011;33951;51.988;5.910;2023-07-20T13:28:08;0.98;;;0.82;;
47513;SDS011;33951;51.988;5.910;2023-07-20T13:30:34;0.85;;;0.80;;
47513;SDS011;33951;51.988;5.910;2023-07-20T13:33:03;1.15;;;0.95;;
47513;SDS011;33951;51.988;5.910;2023-07-20T13:35:36;1.00;;;0.90;;
47513;SDS011;33951;51.988;5.910;2023-07-20T13:38:09;0.93;;;0.80;;
47513;SDS011;33951;51.988;5.910;2023-07-20T13:40:35;1.85;;;1.13;;
47513;SDS011;33951;51.988;5.910;2023-07-20T13:43:03;0.88;;;0.88;;
47513;SDS011;33951;51.988;5.910;2023-07-20T13:45:50;2.58;;;1.52;;
47513;SDS011;33951;51.988;5.910;2023-07-20T13:48:21;1.05;;;0.95;;
47513;SDS011;33951;51.988;5.910;2023-07-20T13:53:16;1.15;;;0.90;;
47513;SDS011;33951;51.988;5.910;2023-07-20T13:55:50;1.10;;;0.90;;
47513;SDS011;33951;51.988;5.910;2023-07-20T13:58:19;1.27;;;1.10;;
47513;SDS011;33951;51.988;5.910;2023-07-20T14:00:54;1.55;;;1.00;;
47513;SDS011;33951;51.988;5.910;2023-07-20T14:03:22;1.80;;;1.20;;
47513;SDS011;33951;51.988;5.910;2023-07-20T14:05:49;0.90;;;0.90;;
47513;SDS011;33951;51.988;5.910;2023-07-20T14:08:40;1.42;;;1.23;;
47513;SDS011;33951;51.988;5.910;2023-07-20T14:11:14;0.98;;;0.90;;
47513;SDS011;33951;51.988;5.910;2023-07-20T14:13:49;1.45;;;1.10;;
47513;SDS011;33951;51.988;5.910;2023-07-20T14:16:28;2.47;;;1.00;;
47513;SDS011;33951;51.988;5.910;2023-07-20T14:19:02;1.45;;;0.93;;
47513;SDS011;33951;51.988;5.910;2023-07-20T14:21:31;1.57;;;1.00;;
47513;SDS011;33951;51.988;5.910;2023-07-20T14:24:08;1.77;;;0.80;;
47513;SDS011;33951;51.988;5.910;2023-07-20T14:26:37;3.17;;;1.00;;
47513;SDS011;33951;51.988;5.910;2023-07-20T14:29:08;2.15;;;1.23;;
47513;SDS011;33951;51.988;5.910;2023-07-20T14:31:41;1.10;;;1.00;;
47513;SDS011;33951;51.988;5.910;2023-07-20T14:34:18;1.63;;;1.00;;
47513;SDS011;33951;51.988;5.910;2023-07-20T14:36:47;2.50;;;1.27;;
47513;SDS011;33951;51.988;5.910;2023-07-20T14:39:13;2.22;;;1.08;;
47513;SDS011;33951;51.988;5.910;2023-07-20T14:41:49;1.92;;;0.95;;
47513;SDS011;33951;51.988;5.910;2023-07-20T14:44:18;1.80;;;1.07;;
47513;SDS011;33951;51.988;5.910;2023-07-20T14:46:47;1.88;;;0.88;;
47513;SDS011;33951;51.988;5.910;2023-07-20T14:49:12;3.58;;;0.90;;
47513;SDS011;33951;51.988;5.910;2023-07-20T14:51:43;2.35;;;1.00;;
47513;SDS011;33951;51.988;5.910;2023-07-20T14:54:19;1.38;;;1.00;;
47513;SDS011;33951;51.988;5.910;2023-07-20T14:56:51;2.63;;;1.23;;
47513;SDS011;33951;51.988;5.910;2023-07-20T14:59:17;2.83;;;1.00;;
47513;SDS011;33951;51.988;5.910;2023-07-20T15:01:44;1.00;;;1.00;;
47513;SDS011;33951;51.988;5.910;2023-07-20T15:04:13;1.20;;;1.00;;
47513;SDS011;33951;51.988;5.910;2023-07-20T15:06:40;1.40;;;1.23;;
47513;SDS011;33951;51.988;5.910;2023-07-20T15:09:15;1.50;;;0.80;;
47513;SDS011;33951;51.988;5.910;2023-07-20T15:11:43;1.63;;;1.20;;
47513;SDS011;33951;51.988;5.910;2023-07-20T15:14:08;1.92;;;1.10;;
47513;SDS011;33951;51.988;5.910;2023-07-20T15:16:47;2.13;;;1.15;;
47513;SDS011;33951;51.988;5.910;2023-07-20T15:19:13;5.55;;;2.35;;
47513;SDS011;33951;51.988;5.910;2023-07-20T15:21:45;2.72;;;1.20;;
47513;SDS011;33951;51.988;5.910;2023-07-20T15:24:13;3.05;;;1.20;;
47513;SDS011;33951;51.988;5.910;2023-07-20T15:26:39;0.95;;;0.90;;
47513;SDS011;33951;51.988;5.910;2023-07-20T15:29:10;1.63;;;1.23;;
47513;SDS011;33951;51.988;5.910;2023-07-20T15:31:42;1.67;;;1.05;;
47513;SDS011;33951;51.988;5.910;2023-07-20T15:35:03;3.00;;;1.20;;
47513;SDS011;33951;51.988;5.910;2023-07-20T15:38:20;1.65;;;1.30;;
47513;SDS011;33951;51.988;5.910;2023-07-20T15:56:53;2.63;;;1.20;;
47513;SDS011;33951;51.988;5.910;2023-07-20T16:00:04;2.22;;;1.20;;
47513;SDS011;33951;51.988;5.910;2023-07-20T16:02:41;1.58;;;1.17;;
47513;SDS011;33951;51.988;5.910;2023-07-20T16:06:04;2.10;;;1.60;;
47513;SDS011;33951;51.988;5.910;2023-07-20T16:08:50;4.22;;;1.50;;
47513;SDS011;33951;51.988;5.910;2023-07-20T16:15:11;1.25;;;1.10;;
47513;SDS011;33951;51.988;5.910;2023-07-20T16:21:08;2.95;;;1.90;;
47513;SDS011;33951;51.988;5.910;2023-07-20T16:24:04;2.58;;;1.92;;
47513;SDS011;33951;51.988;5.910;2023-07-20T16:27:16;4.20;;;1.55;;
47513;SDS011;33951;51.988;5.910;2023-07-20T16:30:18;2.42;;;0.95;;
47513;SDS011;33951;51.988;5.910;2023-07-20T16:33:23;2.10;;;1.75;;
47513;SDS011;33951;51.988;5.910;2023-07-20T16:42:58;3.22;;;1.33;;
47513;SDS011;33951;51.988;5.910;2023-07-20T17:05:38;2.97;;;1.30;;
47513;SDS011;33951;51.988;5.910;2023-07-20T17:08:19;1.88;;;1.00;;
47513;SDS011;33951;51.988;5.910;2023-07-20T17:11:03;1.08;;;0.90;;
47513;SDS011;33951;51.988;5.910;2023-07-20T17:13:45;1.42;;;1.33;;
47513;SDS011;33951;51.988;5.910;2023-07-20T17:16:27;1.38;;;1.25;;
47513;SDS011;33951;51.988;5.910;2023-07-20T17:19:14;1.92;;;1.10;;
47513;SDS011;33951;51.988;5.910;2023-07-20T17:22:04;4.63;;;1.40;;
47513;SDS011;33951;51.988;5.910;2023-07-20T17:24:45;4.15;;;1.42;;
47513;SDS011;33951;51.988;5.910;2023-07-20T17:27:34;2.63;;;1.70;;
47513;SDS011;33951;51.988;5.910;2023-07-20T17:40:58;2.80;;;1.40;;
47513;SDS011;33951;51.988;5.910;2023-07-20T17:46:43;1.67;;;1.05;;
47513;SDS011;33951;51.988;5.910;2023-07-20T18:30:00;1.48;;;1.02;;
47513;SDS011;33951;51.988;5.910;2023-07-20T18:41:52;2.35;;;1.27;;
47513;SDS011;33951;51.988;5.910;2023-07-20T18:49:10;3.13;;;1.15;;
47513;SDS011;33951;51.988;5.910;2023-07-20T18:58:32;2.83;;;2.05;;
47513;SDS011;33951;51.988;5.910;2023-07-20T19:01:44;2.60;;;1.48;;
47513;SDS011;33951;51.988;5.910;2023-07-20T19:08:50;1.95;;;1.30;;
47513;SDS011;33951;51.988;5.910;2023-07-20T19:11:59;1.55;;;1.27;;
47513;SDS011;33951;51.988;5.910;2023-07-20T19:17:40;3.10;;;1.52;;
47513;SDS011;33951;51.988;5.910;2023-07-20T19:20:21;3.63;;;2.80;;
47513;SDS011;33951;51.988;5.910;2023-07-20T19:26:20;3.53;;;2.83;;
47513;SDS011;33951;51.988;5.910;2023-07-20T19:28:46;2.88;;;2.63;;
47513;SDS011;33951;51.988;5.910;2023-07-20T19:31:43;6.60;;;4.47;;
47513;SDS011;33951;51.988;5.910;2023-07-20T19:34:15;5.75;;;3.55;;
47513;SDS011;33951;51.988;5.910;2023-07-20T19:40:17;4.75;;;3.05;;
47513;SDS011;33951;51.988;5.910;2023-07-20T19:46:05;5.38;;;3.90;;
47513;SDS011;33951;51.988;5.910;2023-07-20T19:48:33;3.80;;;3.38;;
47513;SDS011;33951;51.988;5.910;2023-07-20T19:51:02;3.70;;;3.38;;
47513;SDS011;33951;51.988;5.910;2023-07-20T19:53:35;4.35;;;3.60;;
47513;SDS011;33951;51.988;5.910;2023-07-20T19:56:15;5.30;;;3.42;;
47513;SDS011;33951;51.988;5.910;2023-07-20T20:02:08;5.80;;;5.30;;
47513;SDS011;33951;51.988;5.910;2023-07-20T20:04:47;4.45;;;4.05;;
47513;SDS011;33951;51.988;5.910;2023-07-20T20:07:15;9.32;;;7.40;;
47513;SDS011;33951;51.988;5.910;2023-07-20T20:10:16;4.30;;;3.70;;
47513;SDS011;33951;51.988;5.910;2023-07-20T20:12:45;4.43;;;3.97;;
47513;SDS011;33951;51.988;5.910;2023-07-20T20:15:11;22.92;;;15.82;;
47513;SDS011;33951;51.988;5.910;2023-07-20T20:17:37;17.13;;;11.60;;
47513;SDS011;33951;51.988;5.910;2023-07-20T20:20:14;8.20;;;5.15;;
47513;SDS011;33951;51.988;5.910;2023-07-20T20:26:17;8.77;;;4.63;;
47513;SDS011;33951;51.988;5.910;2023-07-20T20:29:31;5.10;;;4.07;;
47513;SDS011;33951;51.988;5.910;2023-07-20T20:35:09;3.95;;;3.53;;
47513;SDS011;33951;51.988;5.910;2023-07-20T20:37:38;3.45;;;2.90;;
47513;SDS011;33951;51.988;5.910;2023-07-20T20:40:05;7.03;;;3.72;;
47513;SDS011;33951;51.988;5.910;2023-07-20T20:42:31;3.90;;;2.65;;
47513;SDS011;33951;51.988;5.910;2023-07-20T20:44:59;2.92;;;2.50;;
47513;SDS011;33951;51.988;5.910;2023-07-20T20:47:28;5.37;;;2.63;;
47513;SDS011;33951;51.988;5.910;2023-07-20T20:49:59;3.72;;;2.25;;
47513;SDS011;33951;51.988;5.910;2023-07-20T20:52:31;5.30;;;2.38;;
47513;SDS011;33951;51.988;5.910;2023-07-20T20:54:59;2.10;;;1.80;;
47513;SDS011;33951;51.988;5.910;2023-07-20T20:57:29;4.55;;;2.35;;
47513;SDS011;33951;51.988;5.910;2023-07-20T20:59:55;2.72;;;1.98;;
47513;SDS011;33951;51.988;5.910;2023-07-20T21:02:20;2.45;;;1.92;;
47513;SDS011;33951;51.988;5.910;2023-07-20T21:04:54;7.53;;;3.38;;
47513;SDS011;33951;51.988;5.910;2023-07-20T21:07:33;4.78;;;3.83;;
47513;SDS011;33951;51.988;5.910;2023-07-20T21:09:59;6.15;;;3.03;;
47513;SDS011;33951;51.988;5.910;2023-07-20T21:12:27;3.33;;;2.33;;
47513;SDS011;33951;51.988;5.910;2023-07-20T21:14:56;3.40;;;1.73;;
47513;SDS011;33951;51.988;5.910;2023-07-20T21:17:34;2.85;;;1.83;;
47513;SDS011;33951;51.988;5.910;2023-07-20T21:20:00;2.13;;;1.60;;
47513;SDS011;33951;51.988;5.910;2023-07-20T21:22:27;1.60;;;1.50;;
47513;SDS011;33951;51.988;5.910;2023-07-20T21:24:55;2.22;;;1.50;;
47513;SDS011;33951;51.988;5.910;2023-07-20T21:27:24;2.58;;;1.80;;
47513;SDS011;33951;51.988;5.910;2023-07-20T21:29:49;3.15;;;1.90;;
47513;SDS011;33951;51.988;5.910;2023-07-20T21:32:15;1.77;;;1.67;;
47513;SDS011;33951;51.988;5.910;2023-07-20T21:34:43;3.78;;;1.63;;
47513;SDS011;33951;51.988;5.910;2023-07-20T21:37:16;1.83;;;1.73;;
47513;SDS011;33951;51.988;5.910;2023-07-20T21:39:42;5.40;;;2.90;;
47513;SDS011;33951;51.988;5.910;2023-07-20T21:42:08;6.50;;;3.30;;
47513;SDS011;33951;51.988;5.910;2023-07-20T21:44:37;5.60;;;3.03;;
47513;SDS011;33951;51.988;5.910;2023-07-20T21:47:03;3.30;;;2.10;;
47513;SDS011;33951;51.988;5.910;2023-07-20T21:49:29;1.70;;;1.55;;
47513;SDS011;33951;51.988;5.910;2023-07-20T21:51:54;3.47;;;1.83;;
47513;SDS011;33951;51.988;5.910;2023-07-20T21:54:20;3.25;;;2.05;;
47513;SDS011;33951;51.988;5.910;2023-07-20T21:56:48;2.08;;;1.55;;
47513;SDS011;33951;51.988;5.910;2023-07-20T21:59:14;1.90;;;1.60;;
47513;SDS011;33951;51.988;5.910;2023-07-20T22:01:40;2.67;;;1.70;;
47513;SDS011;33951;51.988;5.910;2023-07-20T22:04:05;3.78;;;2.05;;
47513;SDS011;33951;51.988;5.910;2023-07-20T22:06:33;2.22;;;2.00;;
47513;SDS011;33951;51.988;5.910;2023-07-20T22:08:59;4.53;;;1.60;;
47513;SDS011;33951;51.988;5.910;2023-07-20T22:11:24;2.50;;;2.30;;
47513;SDS011;33951;51.988;5.910;2023-07-20T22:13:50;4.50;;;2.03;;
47513;SDS011;33951;51.988;5.910;2023-07-20T22:16:16;3.15;;;1.90;;
47513;SDS011;33951;51.988;5.910;2023-07-20T22:18:41;2.47;;;1.63;;
47513;SDS011;33951;51.988;5.910;2023-07-20T22:21:09;2.78;;;1.67;;
47513;SDS011;33951;51.988;5.910;2023-07-20T22:23:36;4.18;;;1.80;;
47513;SDS011;33951;51.988;5.910;2023-07-20T22:26:03;1.70;;;1.60;;
47513;SDS011;33951;51.988;5.910;2023-07-20T22:28:31;3.03;;;1.95;;
47513;SDS011;33951;51.988;5.910;2023-07-20T22:30:57;2.38;;;1.60;;
47513;SDS011;33951;51.988;5.910;2023-07-20T22:33:29;2.58;;;1.63;;
47513;SDS011;33951;51.988;5.910;2023-07-20T22:36:23;3.60;;;1.85;;
47513;SDS011;33951;51.988;5.910;2023-07-20T22:38:59;2.90;;;1.60;;
47513;SDS011;33951;51.988;5.910;2023-07-20T22:41:41;2.63;;;1.75;;
47513;SDS011;33951;51.988;5.910;2023-07-20T22:44:10;2.67;;;1.75;;
47513;SDS011;33951;51.988;5.910;2023-07-20T22:46:51;5.05;;;2.95;;
47513;SDS011;33951;51.988;5.910;2023-07-20T22:49:30;3.03;;;2.50;;
47513;SDS011;33951;51.988;5.910;2023-07-20T22:51:58;5.60;;;2.88;;
47513;SDS011;33951;51.988;5.910;2023-07-20T22:54:36;7.70;;;4.43;;
47513;SDS011;33951;51.988;5.910;2023-07-20T22:57:18;7.55;;;4.65;;
47513;SDS011;33951;51.988;5.910;2023-07-20T22:59:59;4.60;;;3.22;;
47513;SDS011;33951;51.988;5.910;2023-07-20T23:02:28;2.88;;;2.40;;
47513;SDS011;33951;51.988;5.910;2023-07-20T23:05:06;2.97;;;2.20;;
47513;SDS011;33951;51.988;5.910;2023-07-20T23:08:30;4.47;;;1.67;;
47513;SDS011;33951;51.988;5.910;2023-07-20T23:25:43;2.67;;;1.80;;
47513;SDS011;33951;51.988;5.910;2023-07-20T23:32:03;2.30;;;1.85;;
47513;SDS011;33951;51.988;5.910;2023-07-20T23:35:12;1.92;;;1.30;;
47513;SDS011;33951;51.988;5.910;2023-07-20T23:41:54;4.55;;;1.90;;
47513;SDS011;33951;51.988;5.910;2023-07-20T23:48:17;2.50;;;2.25;;
47513;SDS011;33951;51.988;5.910;2023-07-20T23:52:21;3.83;;;1.98;;
47513;SDS011;33951;51.988;5.910;2023-07-20T23:54:37;4.13;;;1.88;;
